Time;durP1;ratioP1;P1;durP2;ratioP2;P2;SDS_P1;SDS_P2;PMS_P1;PMS_P2;Temp;Humidity;BMP_temperature;BMP_pressure;BME280_temperature;BME280_humidity;BME280_pressure;Samples;Min_cycle;Max_cycle;Signal;HPM_P1;HPM_P2
2021/09/16 00:01:52;;;;;;;16.67;15.43;;;17.10;91.30;;;;;;5219346;28;20040;-75
2021/09/16 00:04:24;;;;;;;16.95;15.68;;;17.10;91.30;;;;;;5217552;28;20045;-75
2021/09/16 00:06:56;;;;;;;17.17;15.88;;;17.10;91.40;;;;;;5217813;28;20049;-73
2021/09/16 00:09:28;;;;;;;17.38;16.08;;;17.10;91.40;;;;;;5218953;28;20052;-74
2021/09/16 00:12:03;;;;;;;17.23;15.75;;;17.10;91.50;;;;;;5215656;28;20841;-73
2021/09/16 00:14:35;;;;;;;17.88;16.15;;;17.00;91.10;;;;;;5232816;28;20051;-74
2021/09/16 00:17:07;;;;;;;17.48;16.17;;;17.10;91.70;;;;;;5217022;28;20510;-73
2021/09/16 00:19:39;;;;;;;17.63;16.23;;;17.00;91.70;;;;;;5200411;28;20037;-74
2021/09/16 00:22:11;;;;;;;18.05;16.65;;;16.90;91.40;;;;;;5217520;28;20207;-74
2021/09/16 00:24:43;;;;;;;17.17;15.88;;;16.90;92.20;;;;;;5217818;28;20406;-74
2021/09/16 00:27:15;;;;;;;17.88;16.45;;;16.90;92.60;;;;;;5217317;28;20497;-74
2021/09/16 00:29:47;;;;;;;17.70;16.05;;;16.90;92.40;;;;;;5218360;28;20103;-74
2021/09/16 00:32:19;;;;;;;18.17;16.80;;;17.00;92.20;;;;;;5217603;28;20043;-75
2021/09/16 00:34:56;;;;;;;17.40;16.10;;;17.00;91.90;;;;;;5218163;28;20103;-74
2021/09/16 00:37:28;;;;;;;17.60;16.20;;;16.90;91.80;;;;;;5217129;28;20041;-74
2021/09/16 00:40:00;;;;;;;17.63;16.35;;;16.90;91.90;;;;;;5218153;28;20045;-73
2021/09/16 00:42:32;;;;;;;17.85;16.35;;;17.00;91.80;;;;;;5218196;28;20044;-74
2021/09/16 00:45:05;;;;;;;17.33;16.10;;;17.00;91.70;;;;;;5215888;28;20135;-74
2021/09/16 00:47:41;;;;;;;17.73;16.38;;;17.00;91.40;;;;;;5216727;28;20648;-74
2021/09/16 00:50:22;;;;;;;17.25;15.80;;;17.00;91.40;;;;;;5221922;28;20037;-75
2021/09/16 00:52:54;;;;;;;18.73;17.33;;;17.10;91.70;;;;;;5216698;28;20048;-74
2021/09/16 00:55:28;;;;;;;18.02;16.63;;;17.00;91.90;;;;;;5215183;28;20550;-73
2021/09/16 00:58:02;;;;;;;17.70;16.30;;;17.00;92.00;;;;;;5210479;28;20044;-75
2021/09/16 01:00:36;;;;;;;18.85;17.45;;;16.90;92.70;;;;;;5217463;28;20072;-75
2021/09/16 01:03:08;;;;;;;18.83;17.42;;;16.90;92.70;;;;;;5216556;28;20055;-75
2021/09/16 01:05:40;;;;;;;19.85;18.15;;;16.90;93.00;;;;;;5199241;28;20075;-75
2021/09/16 01:08:12;;;;;;;19.65;17.90;;;17.00;92.80;;;;;;5215873;28;20140;-74
2021/09/16 01:10:44;;;;;;;18.35;17.02;;;16.90;93.00;;;;;;5217916;28;20135;-72
2021/09/16 01:13:17;;;;;;;18.75;17.25;;;16.90;92.90;;;;;;5216150;28;20052;-74
2021/09/16 01:15:49;;;;;;;20.77;19.02;;;16.90;93.00;;;;;;5217186;28;20052;-74
2021/09/16 01:18:21;;;;;;;19.75;18.17;;;16.80;92.60;;;;;;5217352;28;20037;-73
2021/09/16 01:20:54;;;;;;;20.17;18.48;;;16.80;92.30;;;;;;5215842;28;20131;-75
2021/09/16 01:23:26;;;;;;;19.67;18.08;;;16.80;92.40;;;;;;5217143;28;20045;-74
2021/09/16 01:25:58;;;;;;;20.38;18.58;;;16.80;92.30;;;;;;5213914;28;20052;-74
2021/09/16 01:28:30;;;;;;;18.77;17.38;;;16.90;93.10;;;;;;5215772;28;20056;-74
2021/09/16 01:31:02;;;;;;;19.98;18.23;;;16.80;93.30;;;;;;5215330;28;20478;-74
2021/09/16 01:33:34;;;;;;;19.30;17.75;;;16.80;92.80;;;;;;5215852;28;20113;-73
2021/09/16 01:36:10;;;;;;;18.92;17.42;;;16.90;93.10;;;;;;5214867;28;20037;-74
2021/09/16 01:38:42;;;;;;;19.63;17.92;;;16.90;92.60;;;;;;5217275;28;20060;-74
2021/09/16 01:41:14;;;;;;;19.55;18.05;;;16.90;92.60;;;;;;5215952;28;20115;-74
2021/09/16 01:43:46;;;;;;;20.40;18.80;;;16.90;92.90;;;;;;5215326;28;20037;-74
2021/09/16 01:46:20;;;;;;;19.90;18.27;;;16.80;92.90;;;;;;5215201;28;20106;-74
2021/09/16 01:48:52;;;;;;;20.63;18.63;;;16.80;93.40;;;;;;5199824;28;20080;-74
2021/09/16 01:51:24;;;;;;;20.52;18.80;;;16.80;93.10;;;;;;5216152;28;20400;-75
2021/09/16 01:53:56;;;;;;;20.50;18.85;;;16.80;93.20;;;;;;5231736;28;20053;-73
2021/09/16 01:56:28;;;;;;;19.35;17.75;;;16.80;93.60;;;;;;5215234;28;20047;-73
2021/09/16 01:59:00;;;;;;;20.35;18.50;;;16.80;93.70;;;;;;5216258;28;20043;-74
2021/09/16 02:01:32;;;;;;;20.15;18.38;;;16.80;93.50;;;;;;5214154;28;20141;-74
2021/09/16 02:04:04;;;;;;;20.30;18.70;;;16.80;93.40;;;;;;5213000;28;20084;-74
2021/09/16 02:06:36;;;;;;;20.52;18.80;;;16.80;93.80;;;;;;5205622;28;20053;-74
2021/09/16 02:09:08;;;;;;;20.98;19.10;;;16.80;93.60;;;;;;5216856;28;20041;-74
2021/09/16 02:11:40;;;;;;;20.13;18.13;;;16.80;93.70;;;;;;5215145;28;20049;-74
2021/09/16 02:14:12;;;;;;;20.98;19.15;;;16.80;93.60;;;;;;5213487;28;20516;-73
2021/09/16 02:16:44;;;;;;;20.20;18.33;;;16.80;93.60;;;;;;5196644;28;20040;-74
2021/09/16 02:19:16;;;;;;;20.27;18.58;;;16.80;93.90;;;;;;5214679;28;20053;-74
2021/09/16 02:21:48;;;;;;;20.77;18.70;;;16.80;94.00;;;;;;5216217;28;20049;-73
2021/09/16 02:24:20;;;;;;;21.88;19.70;;;16.80;93.90;;;;;;5216665;28;20546;-74
2021/09/16 02:26:52;;;;;;;20.58;18.77;;;16.80;94.60;;;;;;5197087;28;20091;-74
2021/09/16 02:29:24;;;;;;;20.63;18.92;;;16.80;94.60;;;;;;5214883;28;20047;-75
2021/09/16 02:31:56;;;;;;;19.60;18.10;;;16.80;94.50;;;;;;5213796;28;20584;-74
2021/09/16 02:34:28;;;;;;;19.88;18.02;;;16.80;94.00;;;;;;5216621;28;20041;-74
2021/09/16 02:36:59;;;;;;;20.00;18.45;;;16.90;94.20;;;;;;5215080;28;20120;-74
2021/09/16 02:39:31;;;;;;;19.63;18.20;;;16.90;94.10;;;;;;5215898;28;20124;-74
2021/09/16 02:42:04;;;;;;;19.52;18.02;;;16.90;93.80;;;;;;5214923;28;20514;-74
2021/09/16 02:44:35;;;;;;;19.30;17.90;;;16.90;93.30;;;;;;5214858;28;20128;-73
2021/09/16 02:47:07;;;;;;;19.92;18.33;;;17.00;93.60;;;;;;5191427;28;20045;-73
2021/09/16 02:49:39;;;;;;;20.17;18.58;;;17.00;93.30;;;;;;5216390;28;20127;-75
2021/09/16 02:52:11;;;;;;;20.17;18.50;;;17.00;93.20;;;;;;5211579;28;20109;-75
2021/09/16 02:54:43;;;;;;;19.55;18.05;;;17.00;94.20;;;;;;5182576;28;20584;-74
2021/09/16 02:57:15;;;;;;;20.13;18.40;;;16.90;93.60;;;;;;5213768;28;20051;-74
2021/09/16 02:59:50;;;;;;;20.70;18.98;;;16.90;93.60;;;;;;5205026;28;20122;-75
2021/09/16 03:02:22;;;;;;;21.13;19.33;;;16.90;93.50;;;;;;5197607;28;20122;-73
2021/09/16 03:04:54;;;;;;;20.98;19.05;;;16.90;93.50;;;;;;5214577;28;20044;-74
2021/09/16 03:07:26;;;;;;;20.95;19.15;;;17.00;93.70;;;;;;5214014;28;20048;-75
2021/09/16 03:09:57;;;;;;;19.77;18.38;;;17.00;93.30;;;;;;5216146;28;20095;-75
2021/09/16 03:12:29;;;;;;;20.10;18.42;;;17.00;93.80;;;;;;5215090;28;20045;-74
2021/09/16 03:15:01;;;;;;;20.20;18.35;;;16.90;93.70;;;;;;5215313;28;20068;-74
2021/09/16 03:17:33;;;;;;;19.80;18.10;;;16.90;93.50;;;;;;5214180;28;20045;-74
2021/09/16 03:20:07;;;;;;;19.83;18.23;;;16.90;93.80;;;;;;5215899;28;20041;-74
2021/09/16 03:22:39;;;;;;;19.33;17.75;;;17.00;93.00;;;;;;5215281;28;20175;-74
2021/09/16 03:25:11;;;;;;;19.98;18.42;;;17.00;92.90;;;;;;5215562;28;20124;-74
2021/09/16 03:27:43;;;;;;;19.42;17.83;;;17.00;92.70;;;;;;5204431;28;20147;-75
2021/09/16 03:30:16;;;;;;;20.20;18.40;;;17.00;92.70;;;;;;5216595;28;20072;-74
2021/09/16 03:32:48;;;;;;;19.10;17.67;;;17.00;92.90;;;;;;5218998;28;20128;-74
2021/09/16 03:35:19;;;;;;;19.98;18.23;;;17.00;93.20;;;;;;5207879;28;20163;-74
2021/09/16 03:37:51;;;;;;;19.65;18.15;;;17.00;93.20;;;;;;5219155;28;20128;-74
2021/09/16 03:40:23;;;;;;;19.88;18.30;;;16.90;94.00;;;;;;5218746;28;20099;-75
2021/09/16 03:42:55;;;;;;;20.25;18.65;;;16.90;94.30;;;;;;5220615;28;20856;-75
2021/09/16 03:45:27;;;;;;;19.52;18.13;;;16.80;94.20;;;;;;5217610;28;20114;-75
2021/09/16 03:47:59;;;;;;;19.30;17.80;;;16.80;94.30;;;;;;5218286;28;20068;-73
2021/09/16 03:50:31;;;;;;;19.88;18.38;;;16.80;94.00;;;;;;5219581;28;20195;-74
2021/09/16 03:53:03;;;;;;;20.15;18.55;;;16.80;94.20;;;;;;5209669;28;20426;-74
2021/09/16 03:55:35;;;;;;;19.17;17.67;;;16.80;93.70;;;;;;5218882;28;20600;-74
2021/09/16 03:58:07;;;;;;;20.63;18.75;;;16.80;93.70;;;;;;5217698;28;20117;-75
2021/09/16 04:00:41;;;;;;;20.88;19.05;;;16.90;93.90;;;;;;5208649;28;20048;-75
2021/09/16 04:03:13;;;;;;;19.83;18.33;;;16.90;94.00;;;;;;5218421;28;20140;-74
2021/09/16 04:05:45;;;;;;;20.52;18.83;;;16.90;93.60;;;;;;5217551;28;20044;-73
2021/09/16 04:08:17;;;;;;;20.05;18.45;;;16.90;93.80;;;;;;5219013;28;20090;-73
2021/09/16 04:10:49;;;;;;;20.50;18.75;;;17.00;93.70;;;;;;5218149;28;20064;-73
2021/09/16 04:13:21;;;;;;;19.33;17.92;;;17.00;94.10;;;;;;5219155;28;20152;-72
2021/09/16 04:15:53;;;;;;;19.70;18.13;;;17.00;94.50;;;;;;5217105;28;20132;-72
2021/09/16 04:18:26;;;;;;;19.88;18.42;;;16.90;93.90;;;;;;5205729;28;20130;-73
2021/09/16 04:21:01;;;;;;;19.67;18.13;;;16.90;94.20;;;;;;5216360;28;20045;-72
2021/09/16 04:23:33;;;;;;;19.95;18.52;;;16.90;94.40;;;;;;5217834;28;20056;-72
2021/09/16 04:26:05;;;;;;;19.42;18.02;;;17.00;93.80;;;;;;5195833;28;20132;-73
2021/09/16 04:28:37;;;;;;;18.90;17.35;;;17.00;93.50;;;;;;5210616;28;20126;-72
2021/09/16 04:31:09;;;;;;;19.75;18.20;;;17.00;93.50;;;;;;5214059;28;20132;-73
2021/09/16 04:33:41;;;;;;;19.67;18.13;;;16.90;93.90;;;;;;5204857;28;20138;-73
2021/09/16 04:36:13;;;;;;;19.20;17.80;;;16.90;93.80;;;;;;5217265;28;20137;-73
2021/09/16 04:38:46;;;;;;;20.05;18.40;;;16.90;94.30;;;;;;5218230;28;20115;-73
2021/09/16 04:41:18;;;;;;;19.67;18.15;;;16.90;94.50;;;;;;5216974;28;20072;-72
2021/09/16 04:43:51;;;;;;;19.65;18.08;;;16.90;94.30;;;;;;5216162;28;20052;-73
2021/09/16 04:46:23;;;;;;;19.20;17.50;;;16.80;94.10;;;;;;5216077;28;20846;-74
2021/09/16 04:48:55;;;;;;;18.67;17.33;;;16.90;94.00;;;;;;5218581;28;20065;-73
2021/09/16 04:51:27;;;;;;;19.25;17.50;;;16.90;94.00;;;;;;5216755;28;20076;-73
2021/09/16 04:53:59;;;;;;;18.45;16.85;;;17.00;94.00;;;;;;5217754;28;20037;-73
2021/09/16 04:56:31;;;;;;;19.80;17.92;;;16.90;93.80;;;;;;5192541;28;20135;-72
2021/09/16 04:59:03;;;;;;;19.35;17.55;;;16.90;94.20;;;;;;5167475;28;20068;-74
2021/09/16 05:01:35;;;;;;;19.90;18.10;;;17.00;93.90;;;;;;5207243;28;20069;-73
2021/09/16 05:04:07;;;;;;;19.45;17.70;;;16.90;94.80;;;;;;5213633;28;20053;-73
2021/09/16 05:06:39;;;;;;;19.35;17.75;;;17.00;94.20;;;;;;5214686;28;20110;-72
2021/09/16 05:09:11;;;;;;;22.10;18.65;;;17.00;94.10;;;;;;5215087;28;20114;-72
2021/09/16 05:11:43;;;;;;;20.83;18.98;;;17.00;94.40;;;;;;5214495;28;20076;-72
2021/09/16 05:14:15;;;;;;;19.65;18.25;;;17.00;94.30;;;;;;5213345;28;20529;-72
2021/09/16 05:16:47;;;;;;;20.70;18.58;;;17.00;93.90;;;;;;5214992;28;20041;-72
2021/09/16 05:19:19;;;;;;;20.02;18.30;;;17.00;93.90;;;;;;5215951;28;20148;-72
2021/09/16 05:21:51;;;;;;;20.95;19.13;;;17.00;93.90;;;;;;5204875;28;20136;-72
2021/09/16 05:24:23;;;;;;;20.63;18.65;;;17.00;93.80;;;;;;5212847;28;20110;-72
2021/09/16 05:26:55;;;;;;;21.02;19.10;;;17.00;94.60;;;;;;5215696;28;20044;-73
2021/09/16 05:29:27;;;;;;;20.42;18.63;;;17.00;94.80;;;;;;5215062;28;20076;-71
2021/09/16 05:31:59;;;;;;;19.70;18.10;;;17.00;94.60;;;;;;5215835;28;20110;-72
2021/09/16 05:34:32;;;;;;;19.25;17.77;;;17.10;95.10;;;;;;5214482;28;20123;-71
2021/09/16 05:37:04;;;;;;;19.40;17.73;;;17.10;95.10;;;;;;5197032;28;20037;-71
2021/09/16 05:39:37;;;;;;;19.60;18.20;;;17.10;94.80;;;;;;5187192;28;20160;-72
2021/09/16 05:42:09;;;;;;;18.50;17.20;;;17.10;94.80;;;;;;5209688;28;20041;-72
2021/09/16 05:44:41;;;;;;;20.05;18.45;;;17.10;94.60;;;;;;5215168;28;20418;-73
2021/09/16 05:47:13;;;;;;;19.33;17.83;;;17.10;94.40;;;;;;5214290;28;20219;-71
2021/09/16 05:49:45;;;;;;;19.55;17.85;;;17.10;94.60;;;;;;5211278;28;20064;-72
2021/09/16 05:52:17;;;;;;;19.42;17.92;;;17.20;94.20;;;;;;5190976;28;20055;-72
2021/09/16 05:54:49;;;;;;;20.25;18.65;;;17.20;93.90;;;;;;5213893;28;20045;-71
2021/09/16 05:57:21;;;;;;;20.17;18.33;;;17.20;93.70;;;;;;5208565;28;20563;-70
2021/09/16 05:59:53;;;;;;;19.65;18.15;;;17.20;93.60;;;;;;5196575;28;20494;-71
2021/09/16 06:02:25;;;;;;;20.02;18.15;;;17.20;93.70;;;;;;5213130;28;20132;-71
2021/09/16 06:04:57;;;;;;;19.17;17.67;;;17.30;94.00;;;;;;5198615;28;20388;-70
2021/09/16 06:07:29;;;;;;;18.98;17.60;;;17.20;94.10;;;;;;5214879;28;20052;-70
2021/09/16 06:10:02;;;;;;;19.30;17.80;;;17.30;94.20;;;;;;5214280;28;20041;-71
2021/09/16 06:12:34;;;;;;;19.30;17.75;;;17.30;94.10;;;;;;5218882;28;20136;-71
2021/09/16 06:15:06;;;;;;;19.52;18.13;;;17.20;94.50;;;;;;5203890;28;20694;-71
2021/09/16 06:17:39;;;;;;;19.15;17.73;;;17.30;94.30;;;;;;5214168;28;20049;-70
2021/09/16 06:20:12;;;;;;;19.58;17.88;;;17.20;94.30;;;;;;5213067;28;20068;-71
2021/09/16 06:22:46;;;;;;;19.20;17.75;;;17.20;94.70;;;;;;5214205;28;20123;-70
2021/09/16 06:25:18;;;;;;;19.20;17.80;;;17.30;94.70;;;;;;5208158;28;20149;-70
2021/09/16 06:27:50;;;;;;;20.48;18.63;;;17.30;94.20;;;;;;5213365;28;20052;-70
2021/09/16 06:30:23;;;;;;;19.10;17.70;;;17.30;94.30;;;;;;5212941;28;20045;-71
2021/09/16 06:32:55;;;;;;;19.42;18.02;;;17.20;94.40;;;;;;5214677;28;20127;-71
2021/09/16 06:35:27;;;;;;;19.60;18.20;;;17.30;94.60;;;;;;5216387;28;20045;-71
2021/09/16 06:37:59;;;;;;;19.13;17.60;;;17.30;94.30;;;;;;5211881;28;20405;-69
2021/09/16 06:40:31;;;;;;;19.50;18.08;;;17.30;94.30;;;;;;5190849;28;20045;-71
2021/09/16 06:43:03;;;;;;;19.63;18.13;;;17.40;94.40;;;;;;5214754;28;20131;-71
2021/09/16 06:45:35;;;;;;;19.10;17.63;;;17.40;94.60;;;;;;5212691;28;20144;-71
2021/09/16 06:48:09;;;;;;;20.27;18.58;;;17.40;94.00;;;;;;5207379;28;20083;-71
2021/09/16 06:50:41;;;;;;;20.88;19.17;;;17.40;94.50;;;;;;5214728;28;20052;-71
2021/09/16 06:53:13;;;;;;;19.17;17.77;;;17.40;94.80;;;;;;5214747;28;20049;-71
2021/09/16 06:55:45;;;;;;;20.08;18.50;;;17.40;94.90;;;;;;5213684;28;20049;-70
2021/09/16 06:58:17;;;;;;;20.52;18.70;;;17.50;95.30;;;;;;5213336;28;20050;-70
2021/09/16 07:00:49;;;;;;;20.48;18.80;;;17.50;95.10;;;;;;5213349;28;20065;-71
2021/09/16 07:03:21;;;;;;;19.35;17.80;;;17.50;94.80;;;;;;5210783;28;20124;-70
2021/09/16 07:05:54;;;;;;;19.08;17.60;;;17.50;95.90;;;;;;5212902;28;20051;-70
2021/09/16 07:08:26;;;;;;;20.00;18.40;;;17.50;94.90;;;;;;5214894;28;20515;-71
2021/09/16 07:10:57;;;;;;;21.05;19.48;;;17.50;94.60;;;;;;5195913;28;20051;-71
2021/09/16 07:13:29;;;;;;;20.70;18.85;;;17.60;94.90;;;;;;5198868;28;20045;-70
2021/09/16 07:16:01;;;;;;;20.02;18.52;;;17.60;95.30;;;;;;5213413;28;20037;-72
2021/09/16 07:18:34;;;;;;;20.77;19.17;;;17.60;95.40;;;;;;5214594;28;20072;-71
2021/09/16 07:21:06;;;;;;;20.58;18.98;;;17.60;95.60;;;;;;5214616;28;20037;-71
2021/09/16 07:23:38;;;;;;;20.48;18.75;;;17.60;95.40;;;;;;5197572;28;20052;-71
2021/09/16 07:26:26;;;;;;;19.92;18.33;;;17.60;95.10;;;;;;5212216;28;20151;-71
2021/09/16 07:29:03;;;;;;;20.60;19.02;;;17.60;94.90;;;;;;5213195;28;20951;-70
2021/09/16 07:31:35;;;;;;;20.13;18.63;;;17.60;95.00;;;;;;5214025;28;20110;-71
2021/09/16 07:34:07;;;;;;;20.08;18.58;;;17.60;95.20;;;;;;5214385;28;20045;-71
2021/09/16 07:36:39;;;;;;;20.83;19.23;;;17.60;95.00;;;;;;5213690;28;20049;-70
2021/09/16 07:39:16;;;;;;;20.17;18.65;;;17.60;94.60;;;;;;5215674;28;20064;-70
2021/09/16 07:41:50;;;;;;;20.92;19.33;;;17.60;94.60;;;;;;5213720;28;20063;-70
2021/09/16 07:44:22;;;;;;;20.70;19.10;;;17.70;95.20;;;;;;5204087;28;20049;-71
2021/09/16 07:46:53;;;;;;;21.20;19.65;;;17.70;95.00;;;;;;5187072;28;20053;-70
2021/09/16 07:49:32;;;;;;;20.40;18.77;;;17.60;94.90;;;;;;5191995;28;20522;-70
2021/09/16 07:52:04;;;;;;;20.58;19.08;;;17.60;95.20;;;;;;5213337;28;20076;-70
2021/09/16 07:54:36;;;;;;;21.17;19.30;;;17.60;95.70;;;;;;5212662;28;20045;-71
2021/09/16 07:57:08;;;;;;;20.67;19.08;;;17.60;95.70;;;;;;5212680;28;20734;-70
2021/09/16 07:59:40;;;;;;;21.98;20.17;;;17.60;95.60;;;;;;5214322;28;21056;-70
2021/09/16 08:02:12;;;;;;;21.17;19.60;;;17.60;95.80;;;;;;5214305;28;20406;-70
2021/09/16 08:04:44;;;;;;;21.40;19.60;;;17.50;96.00;;;;;;5212490;28;20045;-71
2021/09/16 08:07:16;;;;;;;21.15;19.63;;;17.50;95.90;;;;;;5212678;28;20048;-71
2021/09/16 08:09:48;;;;;;;21.02;19.52;;;17.50;95.90;;;;;;5214771;28;20045;-70
2021/09/16 08:12:20;;;;;;;21.30;19.80;;;17.50;96.30;;;;;;5214462;28;20045;-71
2021/09/16 08:14:52;;;;;;;21.17;19.58;;;17.40;96.30;;;;;;5215883;28;20098;-70
2021/09/16 08:17:24;;;;;;;20.83;19.30;;;17.40;96.50;;;;;;5217903;28;20143;-70
2021/09/16 08:19:56;;;;;;;21.40;19.73;;;17.40;96.10;;;;;;5218054;28;20048;-71
2021/09/16 08:22:28;;;;;;;21.15;19.48;;;17.40;96.30;;;;;;5214028;28;20132;-70
2021/09/16 08:25:00;;;;;;;21.10;19.50;;;17.40;96.70;;;;;;5215920;28;20041;-71
2021/09/16 08:27:33;;;;;;;21.23;19.63;;;17.40;96.60;;;;;;5213901;28;20045;-71
2021/09/16 08:30:08;;;;;;;21.02;19.42;;;17.50;96.60;;;;;;5217813;28;20052;-72
2021/09/16 08:32:40;;;;;;;21.15;19.55;;;17.50;96.60;;;;;;5216507;28;20144;-71
2021/09/16 08:35:12;;;;;;;21.85;19.98;;;17.60;96.30;;;;;;5184063;28;20401;-71
2021/09/16 08:37:44;;;;;;;20.90;19.30;;;17.60;96.30;;;;;;5216551;28;20040;-71
2021/09/16 08:40:16;;;;;;;20.63;19.05;;;17.70;96.60;;;;;;5215868;28;20102;-71
2021/09/16 08:42:49;;;;;;;21.40;19.90;;;17.60;95.90;;;;;;5217379;28;20127;-71
2021/09/16 08:45:22;;;;;;;21.70;20.00;;;17.70;96.60;;;;;;5216258;28;20044;-71
2021/09/16 08:47:55;;;;;;;21.05;19.45;;;17.70;96.40;;;;;;5217031;28;20072;-71
2021/09/16 08:50:29;;;;;;;22.00;20.25;;;17.80;96.40;;;;;;5214562;28;20037;-72
2021/09/16 08:53:01;;;;;;;21.67;20.13;;;17.80;95.80;;;;;;5216911;28;20048;-72
2021/09/16 08:55:34;;;;;;;21.73;20.13;;;17.90;95.90;;;;;;5215637;28;20049;-71
2021/09/16 08:58:06;;;;;;;21.63;20.02;;;18.00;96.20;;;;;;5217250;28;20967;-71
2021/09/16 09:00:38;;;;;;;21.73;19.92;;;18.00;96.20;;;;;;5214054;28;20055;-71
2021/09/16 09:03:10;;;;;;;21.13;19.52;;;18.00;95.90;;;;;;5215780;28;20045;-71
2021/09/16 09:05:43;;;;;;;21.35;19.75;;;18.00;95.70;;;;;;5214406;28;20460;-70
2021/09/16 09:08:22;;;;;;;21.90;19.98;;;18.00;96.70;;;;;;5217104;28;20521;-72
2021/09/16 09:11:00;;;;;;;21.23;19.52;;;18.00;96.20;;;;;;5223290;28;20049;-72
2021/09/16 09:13:34;;;;;;;22.65;20.75;;;18.00;96.30;;;;;;5215802;28;20045;-72
2021/09/16 09:16:08;;;;;;;21.55;19.88;;;18.10;96.80;;;;;;5212609;28;20064;-72
2021/09/16 09:18:49;;;;;;;21.88;20.25;;;18.10;96.20;;;;;;5215772;28;20044;-72
2021/09/16 09:21:21;;;;;;;21.27;19.67;;;18.20;96.30;;;;;;5222630;28;20784;-72
2021/09/16 09:23:54;;;;;;;21.13;19.38;;;18.30;96.40;;;;;;5217184;28;20053;-71
2021/09/16 09:26:27;;;;;;;21.17;19.40;;;18.30;97.00;;;;;;5214163;28;20084;-71
2021/09/16 09:29:08;;;;;;;21.70;20.08;;;18.40;96.70;;;;;;5216807;28;20044;-71
2021/09/16 09:32:08;;;;;;;21.40;19.80;;;18.50;96.60;;;;;;5216475;28;20096;-73
2021/09/16 09:34:40;;;;;;;20.55;19.05;;;18.60;96.80;;;;;;5216985;28;20098;-71
2021/09/16 09:37:18;;;;;;;20.23;18.83;;;18.60;95.70;;;;;;5215316;28;20135;-70
2021/09/16 09:39:59;;;;;;;20.35;18.75;;;18.60;95.70;;;;;;5216100;28;20041;-70
2021/09/16 09:42:33;;;;;;;20.77;19.27;;;18.60;95.70;;;;;;5214164;28;20102;-72
2021/09/16 09:45:10;;;;;;;21.30;19.70;;;18.70;95.70;;;;;;5216086;28;20079;-71
2021/09/16 09:47:48;;;;;;;20.17;18.63;;;18.70;95.40;;;;;;5214460;28;20067;-71
2021/09/16 09:50:26;;;;;;;20.17;18.63;;;18.80;95.40;;;;;;5216356;28;20549;-70
2021/09/16 09:53:12;;;;;;;19.85;18.45;;;18.80;95.00;;;;;;5217623;28;20208;-71
2021/09/16 09:55:44;;;;;;;19.88;18.45;;;18.90;95.40;;;;;;5212111;28;20849;-70
2021/09/16 09:58:32;;;;;;;20.98;19.38;;;18.90;95.30;;;;;;5215320;28;20047;-71
2021/09/16 10:01:24;;;;;;;19.95;18.55;;;18.90;95.10;;;;;;5216674;28;20477;-71
2021/09/16 10:03:56;;;;;;;19.92;18.52;;;18.90;94.60;;;;;;5221509;22;20052;-72
2021/09/16 10:06:37;;;;;;;20.67;19.15;;;18.90;94.80;;;;;;5213205;28;20065;-71
2021/09/16 10:09:14;;;;;;;20.40;18.67;;;18.90;94.60;;;;;;5213951;28;20574;-71
2021/09/16 10:11:48;;;;;;;20.98;19.27;;;18.90;94.80;;;;;;5213520;28;20037;-71
2021/09/16 10:14:20;;;;;;;20.02;18.63;;;18.90;95.10;;;;;;5186834;28;20591;-72
2021/09/16 10:16:52;;;;;;;20.25;18.77;;;18.90;95.10;;;;;;5196532;28;20147;-72
2021/09/16 10:19:24;;;;;;;20.42;18.83;;;19.00;94.50;;;;;;5191939;28;20092;-72
2021/09/16 10:21:56;;;;;;;19.80;18.40;;;19.00;94.80;;;;;;5191846;28;20452;-72
2021/09/16 10:24:28;;;;;;;19.52;18.05;;;18.90;93.20;;;;;;5178332;28;20052;-71
2021/09/16 10:27:01;;;;;;;19.75;18.42;;;18.90;93.50;;;;;;5176845;28;20223;-71
2021/09/16 10:29:36;;;;;;;19.52;18.13;;;18.80;92.20;;;;;;5198096;28;20056;-72
2021/09/16 10:32:08;;;;;;;19.20;17.90;;;18.80;93.20;;;;;;5201870;28;20048;-71
2021/09/16 10:34:56;;;;;;;18.65;17.27;;;18.80;93.90;;;;;;5193622;28;20046;-71
2021/09/16 10:37:35;;;;;;;20.20;18.80;;;18.90;93.70;;;;;;5211960;28;20132;-72
2021/09/16 10:40:20;;;;;;;19.55;18.08;;;19.00;94.10;;;;;;5201233;28;20094;-71
2021/09/16 10:43:01;;;;;;;19.48;18.08;;;19.00;93.20;;;;;;5200293;28;20147;-71
2021/09/16 10:45:42;;;;;;;19.80;18.40;;;19.00;93.40;;;;;;5198092;28;20164;-70
2021/09/16 10:48:14;;;;;;;19.35;17.88;;;19.00;93.00;;;;;;5194255;28;20799;-73
2021/09/16 10:50:49;;;;;;;19.85;18.45;;;19.00;93.80;;;;;;5192156;28;20038;-73
2021/09/16 10:53:41;;;;;;;20.00;18.60;;;19.00;94.00;;;;;;5194716;28;20045;-72
2021/09/16 10:56:31;;;;;;;20.85;19.35;;;19.10;93.10;;;;;;5194050;28;20053;-74
2021/09/16 10:59:03;;;;;;;20.65;19.15;;;19.20;94.60;;;;;;5190255;28;20128;-72
2021/09/16 11:01:52;;;;;;;20.52;18.83;;;19.30;94.90;;;;;;5193521;28;20203;-71
2021/09/16 11:04:46;;;;;;;20.98;19.55;;;19.40;93.60;;;;;;5194758;28;20167;-70
2021/09/16 11:07:38;;;;;;;21.60;20.05;;;19.50;93.00;;;;;;5195022;28;20107;-70
2021/09/16 11:10:16;;;;;;;21.17;19.52;;;19.40;92.20;;;;;;5196187;28;20522;-69
2021/09/16 11:12:51;;;;;;;21.10;19.60;;;19.30;94.00;;;;;;5199110;28;20477;-70
2021/09/16 11:15:24;;;;;;;20.05;18.65;;;19.30;92.20;;;;;;5197821;28;20477;-70
2021/09/16 11:18:14;;;;;;;21.17;19.67;;;19.40;93.00;;;;;;5197478;28;20482;-71
2021/09/16 11:20:48;;;;;;;21.33;19.77;;;19.30;92.80;;;;;;5196314;28;20047;-70
2021/09/16 11:23:20;;;;;;;20.70;19.30;;;19.30;92.60;;;;;;5198599;28;20146;-70
2021/09/16 11:25:52;;;;;;;20.95;19.45;;;19.40;90.80;;;;;;5175616;28;20081;-70
2021/09/16 11:28:24;;;;;;;21.00;19.50;;;19.40;92.10;;;;;;5177966;28;20053;-70
2021/09/16 11:30:55;;;;;;;21.52;19.90;;;19.50;90.50;;;;;;5199612;28;20141;-70
2021/09/16 11:33:27;;;;;;;21.50;19.80;;;19.60;91.10;;;;;;5179190;28;20128;-70
2021/09/16 11:36:08;;;;;;;22.38;20.67;;;19.70;92.70;;;;;;5198152;28;20083;-69
2021/09/16 11:38:40;;;;;;;21.45;19.92;;;19.80;92.60;;;;;;5198762;28;20509;-70
2021/09/16 11:41:12;;;;;;;21.90;20.40;;;20.00;91.50;;;;;;5194828;28;20045;-69
2021/09/16 11:43:44;;;;;;;21.45;19.95;;;20.10;91.90;;;;;;5186968;28;20133;-70
2021/09/16 11:46:18;;;;;;;21.92;20.27;;;20.30;92.20;;;;;;5210789;28;20099;-70
2021/09/16 11:48:50;;;;;;;21.52;19.92;;;20.40;91.00;;;;;;5194419;28;20056;-69
2021/09/16 11:51:22;;;;;;;21.52;19.92;;;20.50;89.00;;;;;;5211559;28;20088;-70
2021/09/16 11:53:53;;;;;;;21.35;19.85;;;20.60;90.00;;;;;;5198503;28;20076;-71
2021/09/16 11:56:25;;;;;;;21.30;19.80;;;20.60;90.20;;;;;;5201037;28;20063;-70
2021/09/16 11:59:07;;;;;;;21.42;19.60;;;20.70;88.10;;;;;;5202430;28;20049;-69
2021/09/16 12:01:39;;;;;;;21.05;19.55;;;20.60;87.90;;;;;;5213130;28;20048;-70
2021/09/16 12:04:11;;;;;;;21.70;20.10;;;20.50;89.10;;;;;;5199957;28;20060;-70
2021/09/16 12:06:43;;;;;;;21.23;19.65;;;20.50;88.60;;;;;;5202470;28;20132;-71
2021/09/16 12:09:15;;;;;;;21.10;19.60;;;20.50;89.60;;;;;;5185971;28;20091;-70
2021/09/16 12:11:48;;;;;;;21.08;19.58;;;20.50;89.80;;;;;;5197343;28;20069;-70
2021/09/16 12:14:20;;;;;;;21.08;19.55;;;20.50;88.40;;;;;;5198615;28;20045;-70
2021/09/16 12:17:02;;;;;;;20.95;19.55;;;20.50;87.50;;;;;;5201960;28;20045;-70
2021/09/16 12:19:40;;;;;;;20.98;19.17;;;20.50;89.20;;;;;;5200376;28;20041;-70
2021/09/16 12:22:12;;;;;;;20.65;19.23;;;20.40;88.00;;;;;;5201612;28;20450;-71
2021/09/16 12:24:43;;;;;;;21.10;19.45;;;20.50;88.60;;;;;;5196537;28;20508;-70
2021/09/16 12:27:15;;;;;;;20.88;19.38;;;20.50;88.60;;;;;;5200948;28;20078;-71
2021/09/16 12:29:54;;;;;;;21.02;19.42;;;20.60;89.10;;;;;;5201431;28;20037;-70
2021/09/16 12:32:30;;;;;;;21.10;19.35;;;20.70;89.60;;;;;;5202561;28;20494;-70
2021/09/16 12:35:14;;;;;;;20.42;18.92;;;20.70;88.20;;;;;;5201668;28;20049;-70
2021/09/16 12:37:46;;;;;;;20.25;18.85;;;20.60;87.20;;;;;;5197223;28;20140;-72
2021/09/16 12:40:26;;;;;;;20.38;18.98;;;20.60;87.70;;;;;;5202459;28;20092;-72
2021/09/16 12:43:05;;;;;;;20.30;18.77;;;20.50;87.80;;;;;;5200972;28;20120;-71
2021/09/16 12:45:37;;;;;;;19.90;18.38;;;20.50;87.50;;;;;;5200358;28;20052;-71
2021/09/16 12:48:15;;;;;;;19.95;18.58;;;20.50;87.50;;;;;;5202863;28;20049;-71
2021/09/16 12:50:47;;;;;;;20.27;18.77;;;20.40;85.60;;;;;;5196393;28;20045;-70
2021/09/16 12:53:18;;;;;;;20.42;18.83;;;20.40;87.00;;;;;;5197444;28;20041;-71
2021/09/16 12:56:08;;;;;;;20.73;19.23;;;20.50;88.00;;;;;;5200120;28;20641;-69
2021/09/16 12:58:40;;;;;;;20.95;19.48;;;20.40;86.90;;;;;;5198902;28;20068;-70
2021/09/16 13:01:12;;;;;;;20.60;19.10;;;20.40;87.50;;;;;;5195759;28;20160;-71